Victory — WDB9496 — position and weather

sailwx.info

Track history (hours):
 
Tides and Currents Weather Stations Pressure Air Temp Water Temp Dewpoint Dewpoint Depression Visibility Wind Speed Wind Dir Waves Ship Positions

Victory

Owner: XENIOS, GEORGE, WILMINGTON, CA. More information available from US FCC via Universal Licensing System and Coast Guard Vessel Documentation Center.

Last reported at 2017-Oct-17 21:59 UTC. Time now 2017-Oct-18 11:22 UTC.
Position N 33°41' W 118°12'.

Type: Passenger vessel. MMSI: 366977270.

Date/timePositionNaut miles runAvg speedWind from/ knotsBaromVisibWave heightAir tempDewpointWater temp
2017-Oct-17 21:59N 33°41' W 118°12'1 3.0
2017-Oct-17 21:30N 33°39' W 118°12'0 0.0
2017-Oct-17 21:00N 33°39' W 118°12'0 0.2
2017-Oct-17 20:30N 33°39' W 118°12'1 2.8
2017-Oct-17 20:00N 33°38' W 118°13'0 0.7
2017-Oct-17 19:30N 33°38' W 118°13'0 0.2
2017-Oct-17 19:00N 33°38' W 118°13'0 0.8
2017-Oct-17 18:30N 33°39' W 118°13'0 0.4
2017-Oct-17 18:00N 33°38' W 118°14'2 4.3
2017-Oct-17 17:30N 33°39' W 118°16'1 1.7
2017-Oct-17 17:00N 33°40' W 118°17'0 0.2
2017-Oct-17 16:30N 33°40' W 118°17'1 1.1
2017-Oct-17 16:00N 33°40' W 118°17'0 0.1
2017-Oct-17 15:30N 33°40' W 118°17'2 4.9
2017-Oct-17 15:00N 33°41' W 118°14'4 8.5
2017-Oct-17 14:30N 33°44' W 118°10'0 0.6
2017-Oct-17 13:59N 33°43' W 118°09'4 7.6
2017-Oct-17 13:31N 33°46' W 118°13'6 0.4
2017-Oct-16 22:54N 33°40' W 118°14'0 0.0
2017-Oct-16 22:30N 33°40' W 118°14'1 3.0
2017-Oct-16 22:00N 33°40' W 118°12'0 0.1
2017-Oct-16 21:30N 33°40' W 118°12'2 4.0
2017-Oct-16 21:00N 33°38' W 118°13'0 0.0
2017-Oct-16 20:30N 33°38' W 118°13'1 2.1
2017-Oct-16 20:00N 33°38' W 118°14'1 1.7
2017-Oct-16 19:30N 33°38' W 118°15'2 3.0
2017-Oct-16 19:00N 33°37' W 118°16'0 0.0
2017-Oct-16 18:29N 33°37' W 118°16'0 0.1
2017-Oct-16 18:01N 33°37' W 118°16'1 2.3
2017-Oct-16 17:27N 33°36' W 118°16'0 0.7
2017-Oct-16 16:55N 33°36' W 118°16'0 0.9
2017-Oct-16 16:31N 33°36' W 118°16'0 0.3
2017-Oct-16 16:00N 33°36' W 118°16'0 0.2
2017-Oct-16 15:30N 33°36' W 118°16'0 0.0
2017-Oct-16 15:00N 33°36' W 118°16'4 4.1
2017-Oct-16 13:59N 33°40' W 118°16'4 8.2
2017-Oct-16 13:28N 33°44' W 118°13'11 0.6
2017-Oct-15 18:26N 33°34' W 118°08'0 0.9
2017-Oct-15 18:00N 33°34' W 118°08'0 0.1
2017-Oct-15 17:30N 33°34' W 118°08'0 0.3
2017-Oct-15 17:00N 33°34' W 118°08'0 0.1
2017-Oct-15 16:31N 33°34' W 118°08'0 0.2
2017-Oct-15 16:00N 33°34' W 118°08'0 0.2
2017-Oct-15 15:30N 33°34' W 118°08'3 5.3
2017-Oct-15 15:00N 33°37' W 118°09'7 6.9
2017-Oct-15 14:00N 33°44' W 118°08'3 6.2
2017-Oct-15 13:30N 33°44' W 118°12'2 0.2
2017-Oct-14 22:51N 33°43' W 118°14'3 8.6
2017-Oct-14 22:30N 33°40' W 118°14'0 0.7
2017-Oct-14 22:00N 33°40' W 118°14'1 2.6
2017-Oct-14 21:30N 33°40' W 118°15'0 0.0
2017-Oct-14 21:00N 33°40' W 118°15'1 2.4
2017-Oct-14 20:30N 33°39' W 118°16'0 0.1
2017-Oct-14 20:00N 33°39' W 118°16'2 3.3
2017-Oct-14 19:30N 33°38' W 118°14'0 0.0
2017-Oct-14 19:00N 33°38' W 118°14'3 5.1
2017-Oct-14 18:30N 33°36' W 118°16'0 0.4
2017-Oct-14 17:59N 33°36' W 118°16'0 0.0
2017-Oct-14 17:30N 33°36' W 118°16'1 2.6
2017-Oct-14 17:00N 33°37' W 118°16'0 0.0
2017-Oct-14 16:30N 33°37' W 118°16'0 0.0
2017-Oct-14 16:00N 33°37' W 118°16'0 0.0
2017-Oct-14 15:30N 33°37' W 118°16'4 7.6
2017-Oct-14 14:59N 33°41' W 118°14'4 8.5
2017-Oct-14 14:30N 33°44' W 118°10'1 3.0
2017-Oct-14 14:00N 33°44' W 118°09'4 7.6
2017-Oct-14 13:30N 33°45' W 118°13'2 3.5
2017-Oct-14 13:00N 33°46' W 118°13'2 0.1
2017-Oct-13 22:32N 33°45' W 118°13'0 9.5
2017-Oct-13 22:30N 33°44' W 118°13'4 8.4
2017-Oct-13 22:00N 33°40' W 118°15'0 0.0
2017-Oct-13 21:30N 33°40' W 118°15'0 1.0
2017-Oct-13 21:00N 33°40' W 118°16'1 1.7
2017-Oct-13 20:30N 33°40' W 118°17'1 1.6
2017-Oct-13 20:00N 33°41' W 118°16'0 0.2
2017-Oct-13 19:30N 33°41' W 118°16'1 1.4
2017-Oct-13 19:00N 33°41' W 118°17'0 0.1
2017-Oct-13 18:30N 33°41' W 118°17'0 0.0
2017-Oct-13 18:00N 33°41' W 118°17'2 3.2
2017-Oct-13 17:25N 33°40' W 118°17'0 0.2
2017-Oct-13 17:00N 33°39' W 118°17'0 0.1
2017-Oct-13 16:30N 33°40' W 118°17'0 0.1
2017-Oct-13 15:58N 33°40' W 118°17'0 0.6
2017-Oct-13 15:30N 33°40' W 118°17'4 7.6
2017-Oct-13 15:00N 33°42' W 118°13'4 8.6
2017-Oct-13 14:30N 33°44' W 118°08'2 3.1
2017-Oct-13 14:00N 33°44' W 118°10'3 7.0
2017-Oct-13 13:30N 33°46' W 118°13'4 0.2
2017-Oct-12 22:29N 33°43' W 118°16'3 5.4
2017-Oct-12 22:00N 33°40' W 118°15'0 0.1
2017-Oct-12 21:30N 33°40' W 118°15'2 3.1
2017-Oct-12 21:00N 33°40' W 118°13'1 1.8
2017-Oct-12 20:30N 33°39' W 118°14'1 1.5
2017-Oct-12 20:00N 33°38' W 118°13'2 3.6
2017-Oct-12 19:27N 33°37' W 118°16'1 0.9
2017-Oct-12 18:49N 33°37' W 118°16'0 0.0
2017-Oct-12 18:27N 33°37' W 118°16'1 1.9
2017-Oct-12 17:51N 33°36' W 118°16'0 0.2
2017-Oct-12 17:24N 33°36' W 118°16'0 0.2
2017-Oct-12 17:01N 33°36' W 118°16'0 0.3
2017-Oct-12 15:29N 33°36' W 118°16'3 6.4
2017-Oct-12 14:58N 33°38' W 118°13'4 9.0
2017-Oct-12 14:30N 33°42' W 118°10'2 4.5
2017-Oct-12 14:01N 33°44' W 118°08'4 8.0
2017-Oct-12 13:30N 33°45' W 118°13'3 0.2
2017-Oct-11 22:26N 33°42' W 118°15'2 5.1
2017-Oct-11 22:00N 33°40' W 118°14'0 0.0
2017-Oct-11 21:31N 33°40' W 118°14'0 0.0
2017-Oct-11 21:01N 33°40' W 118°14'0 0.0
2017-Oct-11 20:30N 33°40' W 118°14'1 2.9
2017-Oct-11 20:00N 33°38' W 118°14'1 1.5
2017-Oct-11 19:31N 33°39' W 118°14'0 0.1
2017-Oct-11 19:00N 33°39' W 118°14'2 3.5
2017-Oct-11 18:31N 33°39' W 118°16'0 0.1
2017-Oct-11 18:01N 33°39' W 118°16'1 1.4
2017-Oct-11 17:11N 33°40' W 118°17'0 0.0
2017-Oct-11 17:00N 33°40' W 118°17'3 0.2
2017-Oct-10 22:36N 33°40' W 118°14'1 6.9
2017-Oct-10 22:30N 33°40' W 118°14'0 0.1
2017-Oct-10 22:01N 33°40' W 118°14'0 0.0
2017-Oct-10 21:30N 33°40' W 118°14'0 0.0
2017-Oct-10 21:00N 33°40' W 118°14'1 1.4
2017-Oct-10 20:30N 33°39' W 118°13'3 6.6
2017-Oct-10 20:00N 33°37' W 118°11'1 3.0
2017-Oct-10 19:30N 33°35' W 118°10'0 0.0
2017-Oct-10 19:00N 33°35' W 118°10'0 0.0
2017-Oct-10 18:30N 33°35' W 118°10'2 3.2
2017-Oct-10 18:00N 33°34' W 118°08'0 0.3
2017-Oct-10 17:30N 33°34' W 118°08'0 0.5
2017-Oct-10 17:00N 33°34' W 118°08'0 0.2
2017-Oct-10 16:30N 33°34' W 118°08'0 0.1
2017-Oct-10 16:01N 33°34' W 118°08'1 1.7
2017-Oct-10 15:30N 33°35' W 118°08'2 3.2
2017-Oct-10 15:00N 33°36' W 118°10'8 7.6
2017-Oct-10 14:00N 33°43' W 118°11'3 6.0
2017-Oct-10 13:30N 33°46' W 118°13'  
2017-Oct-07 22:42N 33°42' W 118°15'2 7.8
2017-Oct-07 22:30N 33°41' W 118°15'0 0.6
2017-Oct-07 22:01N 33°41' W 118°15'  
Track history (hours):
 
Tides and Currents Weather Stations Pressure Air Temp Water Temp Dewpoint Dewpoint Depression Visibility Wind Speed Wind Dir Waves Ship Positions

Victory

Owner: XENIOS, GEORGE, WILMINGTON, CA. More information available from US FCC via Universal Licensing System and Coast Guard Vessel Documentation Center.

Last reported at 2017-Oct-17 21:59 UTC. Time now 2017-Oct-18 11:22 UTC.
Position N 33°41' W 118°12'.

Type: Passenger vessel. MMSI: 366977270.

Date/timePositionNaut miles runAvg speedWind from/ knotsBaromVisibWave heightAir tempDewpointWater temp
2017-Oct-17 21:59N 33°41' W 118°12'1 3.0
2017-Oct-17 21:30N 33°39' W 118°12'0 0.0
2017-Oct-17 21:00N 33°39' W 118°12'0 0.2
2017-Oct-17 20:30N 33°39' W 118°12'1 2.8
2017-Oct-17 20:00N 33°38' W 118°13'0 0.7
2017-Oct-17 19:30N 33°38' W 118°13'0 0.2
2017-Oct-17 19:00N 33°38' W 118°13'0 0.8
2017-Oct-17 18:30N 33°39' W 118°13'0 0.4
2017-Oct-17 18:00N 33°38' W 118°14'2 4.3
2017-Oct-17 17:30N 33°39' W 118°16'1 1.7
2017-Oct-17 17:00N 33°40' W 118°17'0 0.2
2017-Oct-17 16:30N 33°40' W 118°17'1 1.1
2017-Oct-17 16:00N 33°40' W 118°17'0 0.1
2017-Oct-17 15:30N 33°40' W 118°17'2 4.9
2017-Oct-17 15:00N 33°41' W 118°14'4 8.5
2017-Oct-17 14:30N 33°44' W 118°10'0 0.6
2017-Oct-17 13:59N 33°43' W 118°09'4 7.6
2017-Oct-17 13:31N 33°46' W 118°13'6 0.4
2017-Oct-16 22:54N 33°40' W 118°14'0 0.0
2017-Oct-16 22:30N 33°40' W 118°14'1 3.0
2017-Oct-16 22:00N 33°40' W 118°12'0 0.1
2017-Oct-16 21:30N 33°40' W 118°12'2 4.0
2017-Oct-16 21:00N 33°38' W 118°13'0 0.0
2017-Oct-16 20:30N 33°38' W 118°13'1 2.1
2017-Oct-16 20:00N 33°38' W 118°14'1 1.7
2017-Oct-16 19:30N 33°38' W 118°15'2 3.0
2017-Oct-16 19:00N 33°37' W 118°16'0 0.0
2017-Oct-16 18:29N 33°37' W 118°16'0 0.1
2017-Oct-16 18:01N 33°37' W 118°16'1 2.3
2017-Oct-16 17:27N 33°36' W 118°16'0 0.7
2017-Oct-16 16:55N 33°36' W 118°16'0 0.9
2017-Oct-16 16:31N 33°36' W 118°16'0 0.3
2017-Oct-16 16:00N 33°36' W 118°16'0 0.2
2017-Oct-16 15:30N 33°36' W 118°16'0 0.0
2017-Oct-16 15:00N 33°36' W 118°16'4 4.1
2017-Oct-16 13:59N 33°40' W 118°16'4 8.2
2017-Oct-16 13:28N 33°44' W 118°13'11 0.6
2017-Oct-15 18:26N 33°34' W 118°08'0 0.9
2017-Oct-15 18:00N 33°34' W 118°08'0 0.1
2017-Oct-15 17:30N 33°34' W 118°08'0 0.3
2017-Oct-15 17:00N 33°34' W 118°08'0 0.1
2017-Oct-15 16:31N 33°34' W 118°08'0 0.2
2017-Oct-15 16:00N 33°34' W 118°08'0 0.2
2017-Oct-15 15:30N 33°34' W 118°08'3 5.3
2017-Oct-15 15:00N 33°37' W 118°09'7 6.9
2017-Oct-15 14:00N 33°44' W 118°08'3 6.2
2017-Oct-15 13:30N 33°44' W 118°12'2 0.2
2017-Oct-14 22:51N 33°43' W 118°14'3 8.6
2017-Oct-14 22:30N 33°40' W 118°14'0 0.7
2017-Oct-14 22:00N 33°40' W 118°14'1 2.6
2017-Oct-14 21:30N 33°40' W 118°15'0 0.0
2017-Oct-14 21:00N 33°40' W 118°15'1 2.4
2017-Oct-14 20:30N 33°39' W 118°16'0 0.1
2017-Oct-14 20:00N 33°39' W 118°16'2 3.3
2017-Oct-14 19:30N 33°38' W 118°14'0 0.0
2017-Oct-14 19:00N 33°38' W 118°14'3 5.1
2017-Oct-14 18:30N 33°36' W 118°16'0 0.4
2017-Oct-14 17:59N 33°36' W 118°16'0 0.0
2017-Oct-14 17:30N 33°36' W 118°16'1 2.6
2017-Oct-14 17:00N 33°37' W 118°16'0 0.0
2017-Oct-14 16:30N 33°37' W 118°16'0 0.0
2017-Oct-14 16:00N 33°37' W 118°16'0 0.0
2017-Oct-14 15:30N 33°37' W 118°16'4 7.6
2017-Oct-14 14:59N 33°41' W 118°14'4 8.5
2017-Oct-14 14:30N 33°44' W 118°10'1 3.0
2017-Oct-14 14:00N 33°44' W 118°09'4 7.6
2017-Oct-14 13:30N 33°45' W 118°13'2 3.5
2017-Oct-14 13:00N 33°46' W 118°13'2 0.1
2017-Oct-13 22:32N 33°45' W 118°13'0 9.5
2017-Oct-13 22:30N 33°44' W 118°13'4 8.4
2017-Oct-13 22:00N 33°40' W 118°15'0 0.0
2017-Oct-13 21:30N 33°40' W 118°15'0 1.0
2017-Oct-13 21:00N 33°40' W 118°16'1 1.7
2017-Oct-13 20:30N 33°40' W 118°17'1 1.6
2017-Oct-13 20:00N 33°41' W 118°16'0 0.2
2017-Oct-13 19:30N 33°41' W 118°16'1 1.4
2017-Oct-13 19:00N 33°41' W 118°17'0 0.1
2017-Oct-13 18:30N 33°41' W 118°17'0 0.0
2017-Oct-13 18:00N 33°41' W 118°17'2 3.2
2017-Oct-13 17:25N 33°40' W 118°17'0 0.2
2017-Oct-13 17:00N 33°39' W 118°17'0 0.1
2017-Oct-13 16:30N 33°40' W 118°17'0 0.1
2017-Oct-13 15:58N 33°40' W 118°17'0 0.6
2017-Oct-13 15:30N 33°40' W 118°17'4 7.6
2017-Oct-13 15:00N 33°42' W 118°13'4 8.6
2017-Oct-13 14:30N 33°44' W 118°08'2 3.1
2017-Oct-13 14:00N 33°44' W 118°10'3 7.0
2017-Oct-13 13:30N 33°46' W 118°13'4 0.2
2017-Oct-12 22:29N 33°43' W 118°16'3 5.4
2017-Oct-12 22:00N 33°40' W 118°15'0 0.1
2017-Oct-12 21:30N 33°40' W 118°15'2 3.1
2017-Oct-12 21:00N 33°40' W 118°13'1 1.8
2017-Oct-12 20:30N 33°39' W 118°14'1 1.5
2017-Oct-12 20:00N 33°38' W 118°13'2 3.6
2017-Oct-12 19:27N 33°37' W 118°16'1 0.9
2017-Oct-12 18:49N 33°37' W 118°16'0 0.0
2017-Oct-12 18:27N 33°37' W 118°16'1 1.9
2017-Oct-12 17:51N 33°36' W 118°16'0 0.2
2017-Oct-12 17:24N 33°36' W 118°16'0 0.2
2017-Oct-12 17:01N 33°36' W 118°16'0 0.3
2017-Oct-12 15:29N 33°36' W 118°16'3 6.4
2017-Oct-12 14:58N 33°38' W 118°13'4 9.0
2017-Oct-12 14:30N 33°42' W 118°10'2 4.5
2017-Oct-12 14:01N 33°44' W 118°08'4 8.0
2017-Oct-12 13:30N 33°45' W 118°13'3 0.2
2017-Oct-11 22:26N 33°42' W 118°15'2 5.1
2017-Oct-11 22:00N 33°40' W 118°14'0 0.0
2017-Oct-11 21:31N 33°40' W 118°14'0 0.0
2017-Oct-11 21:01N 33°40' W 118°14'0 0.0
2017-Oct-11 20:30N 33°40' W 118°14'1 2.9
2017-Oct-11 20:00N 33°38' W 118°14'1 1.5
2017-Oct-11 19:31N 33°39' W 118°14'0 0.1
2017-Oct-11 19:00N 33°39' W 118°14'2 3.5
2017-Oct-11 18:31N 33°39' W 118°16'0 0.1
2017-Oct-11 18:01N 33°39' W 118°16'1 1.4
2017-Oct-11 17:11N 33°40' W 118°17'0 0.0
2017-Oct-11 17:00N 33°40' W 118°17'3 0.2
2017-Oct-10 22:36N 33°40' W 118°14'1 6.9
2017-Oct-10 22:30N 33°40' W 118°14'0 0.1
2017-Oct-10 22:01N 33°40' W 118°14'0 0.0
2017-Oct-10 21:30N 33°40' W 118°14'0 0.0
2017-Oct-10 21:00N 33°40' W 118°14'1 1.4
2017-Oct-10 20:30N 33°39' W 118°13'3 6.6
2017-Oct-10 20:00N 33°37' W 118°11'1 3.0
2017-Oct-10 19:30N 33°35' W 118°10'0 0.0
2017-Oct-10 19:00N 33°35' W 118°10'0 0.0
2017-Oct-10 18:30N 33°35' W 118°10'2 3.2
2017-Oct-10 18:00N 33°34' W 118°08'0 0.3
2017-Oct-10 17:30N 33°34' W 118°08'0 0.5
2017-Oct-10 17:00N 33°34' W 118°08'0 0.2
2017-Oct-10 16:30N 33°34' W 118°08'0 0.1
2017-Oct-10 16:01N 33°34' W 118°08'1 1.7
2017-Oct-10 15:30N 33°35' W 118°08'2 3.2
2017-Oct-10 15:00N 33°36' W 118°10'8 7.6
2017-Oct-10 14:00N 33°43' W 118°11'3 6.0
2017-Oct-10 13:30N 33°46' W 118°13'  
2017-Oct-07 22:42N 33°42' W 118°15'2 7.8
2017-Oct-07 22:30N 33°41' W 118°15'0 0.6
2017-Oct-07 22:01N 33°41' W 118°15'  

Dump ship's entire track history